Time;durP1;ratioP1;P1;durP2;ratioP2;P2;SDS_P1;SDS_P2;PMS_P1;PMS_P2;Temp;Humidity;BMP_temperature;BMP_pressure;BME280_temperature;BME280_humidity;BME280_pressure;Samples;Min_cycle;Max_cycle;Signal;HPM_P1;HPM_P2
2023/12/29 00:00:38;;;;;;;20.38;3.38;;;7.30;99.90;;;;;;5111221;28;20053;-79
2023/12/29 00:03:04;;;;;;;24.73;3.70;;;7.40;99.90;;;;;;5112009;28;20031;-79
2023/12/29 00:05:30;;;;;;;14.13;3.10;;;7.30;99.90;;;;;;5112644;28;20027;-78
2023/12/29 00:07:56;;;;;;;17.88;3.65;;;7.30;99.90;;;;;;5112339;28;20050;-79
2023/12/29 00:10:22;;;;;;;16.05;3.28;;;7.30;99.90;;;;;;5112500;28;20047;-78
2023/12/29 00:12:47;;;;;;;21.00;3.25;;;7.30;99.90;;;;;;5093674;28;20336;-81
2023/12/29 00:15:16;;;;;;;17.70;3.20;;;7.20;99.90;;;;;;5111959;28;20016;-79
2023/12/29 00:17:42;;;;;;;16.30;3.15;;;7.20;99.90;;;;;;5112185;28;20019;-79
2023/12/29 00:20:08;;;;;;;22.77;3.67;;;7.20;99.90;;;;;;5112367;28;20038;-79
2023/12/29 00:22:34;;;;;;;14.40;3.35;;;7.20;99.90;;;;;;5112186;28;20046;-79
2023/12/29 00:25:00;;;;;;;25.73;3.88;;;7.10;99.90;;;;;;5111643;28;20402;-79
2023/12/29 00:27:26;;;;;;;21.73;3.80;;;7.20;99.90;;;;;;5093834;28;20023;-79
2023/12/29 00:29:51;;;;;;;14.38;3.33;;;7.20;99.90;;;;;;5111056;28;20052;-80
2023/12/29 00:32:17;;;;;;;18.30;3.00;;;7.20;99.90;;;;;;5111945;28;20016;-79
2023/12/29 00:34:43;;;;;;;22.52;3.67;;;7.20;99.90;;;;;;5112437;28;20453;-79
2023/12/29 00:37:09;;;;;;;18.42;3.33;;;7.20;99.90;;;;;;5111474;28;20020;-79
2023/12/29 00:39:38;;;;;;;14.65;3.20;;;7.20;99.90;;;;;;5112142;28;20032;-79
2023/12/29 00:42:08;;;;;;;21.10;3.58;;;7.20;99.90;;;;;;5111602;28;20027;-79
2023/12/29 00:44:34;;;;;;;12.60;2.40;;;7.20;99.90;;;;;;5111525;28;20015;-79
2023/12/29 00:47:00;;;;;;;14.43;3.20;;;7.20;99.90;;;;;;5111606;28;20027;-80
2023/12/29 00:49:26;;;;;;;20.05;3.20;;;7.20;99.90;;;;;;5111918;28;20051;-80
2023/12/29 00:51:53;;;;;;;22.17;3.63;;;7.20;99.90;;;;;;5111589;28;20030;-80
2023/12/29 00:54:19;;;;;;;17.08;2.60;;;7.10;99.90;;;;;;5112402;28;20165;-79
2023/12/29 00:56:51;;;;;;;15.77;3.50;;;7.10;99.90;;;;;;5112018;28;20034;-79
2023/12/29 00:59:20;;;;;;;;;;;7.00;99.90;;;;;;5094368;28;20050;-78
2023/12/29 01:01:46;;;;;;;16.23;3.20;;;7.00;99.90;;;;;;5112222;28;20233;-77
2023/12/29 01:04:12;;;;;;;20.50;3.80;;;7.00;99.90;;;;;;5093506;28;20027;-78
2023/12/29 01:06:37;;;;;;;17.85;3.53;;;7.00;99.90;;;;;;5112209;28;20019;-78
2023/12/29 01:09:03;;;;;;;16.38;3.10;;;7.00;99.90;;;;;;5112206;28;20035;-78
2023/12/29 01:11:29;;;;;;;17.23;2.75;;;7.00;99.90;;;;;;5111881;28;20030;-78
2023/12/29 01:13:55;;;;;;;16.40;3.30;;;7.00;99.90;;;;;;5111337;28;20027;-78
2023/12/29 01:16:21;;;;;;;20.48;3.90;;;7.00;99.90;;;;;;5112023;28;20074;-78
2023/12/29 01:18:46;;;;;;;17.95;3.22;;;7.00;99.90;;;;;;5112154;28;20476;-78
2023/12/29 01:21:12;;;;;;;13.60;3.40;;;6.90;99.90;;;;;;5112500;28;20122;-77
2023/12/29 01:23:38;;;;;;;17.60;3.33;;;6.90;99.90;;;;;;5112502;28;20346;-78
2023/12/29 01:26:03;;;;;;;18.67;3.28;;;6.90;99.90;;;;;;5093584;28;20023;-79
2023/12/29 01:28:29;;;;;;;15.82;3.75;;;6.90;99.90;;;;;;5112147;28;20031;-79
2023/12/29 01:30:55;;;;;;;18.45;3.08;;;6.90;99.90;;;;;;5093085;28;20076;-78
2023/12/29 01:33:21;;;;;;;16.88;2.83;;;7.00;99.90;;;;;;5111023;28;20020;-79
2023/12/29 01:35:47;;;;;;;14.70;2.95;;;7.00;99.90;;;;;;5110653;28;20024;-78
2023/12/29 01:38:13;;;;;;;18.27;2.90;;;7.00;99.90;;;;;;5110050;28;20024;-79
2023/12/29 01:40:47;;;;;;;16.65;3.10;;;7.00;99.90;;;;;;5110609;28;20411;-78
2023/12/29 01:43:13;;;;;;;16.70;3.40;;;7.00;99.90;;;;;;5109780;28;20030;-78
2023/12/29 01:45:39;;;;;;;23.10;3.33;;;7.00;99.90;;;;;;5117859;28;20015;-78
2023/12/29 01:48:06;;;;;;;18.05;3.42;;;7.00;99.90;;;;;;5130456;28;20107;-79
2023/12/29 01:50:32;;;;;;;18.13;4.22;;;7.00;99.90;;;;;;5112647;28;20058;-78
2023/12/29 01:52:59;;;;;;;22.10;3.30;;;7.10;99.90;;;;;;5130285;27;20098;-79
2023/12/29 01:55:26;;;;;;;12.57;3.03;;;7.10;99.90;;;;;;5131230;28;20451;-78
2023/12/29 01:57:52;;;;;;;16.38;3.25;;;7.10;99.90;;;;;;5112114;28;20354;-80
2023/12/29 02:00:19;;;;;;;13.25;3.08;;;7.00;99.90;;;;;;5130626;28;20019;-79
2023/12/29 02:02:46;;;;;;;17.38;2.88;;;7.00;99.90;;;;;;5131201;28;20023;-79
2023/12/29 02:05:15;;;;;;;21.25;3.90;;;7.00;99.90;;;;;;5131192;28;20019;-79
2023/12/29 02:07:44;;;;;;;22.05;2.92;;;6.90;99.90;;;;;;5130762;28;20076;-79
2023/12/29 02:10:13;;;;;;;17.25;3.35;;;6.90;99.90;;;;;;5130226;28;20023;-79
2023/12/29 02:12:39;;;;;;;18.65;3.03;;;6.90;99.90;;;;;;5130993;28;20072;-79
2023/12/29 02:15:06;;;;;;;18.63;3.35;;;6.80;99.90;;;;;;5130356;28;20023;-79
2023/12/29 02:17:47;;;;;;;14.52;2.78;;;6.80;99.90;;;;;;5130880;28;20383;-78
2023/12/29 02:20:13;;;;;;;14.02;3.45;;;6.80;99.90;;;;;;5129986;28;20027;-79
2023/12/29 02:22:39;;;;;;;22.23;3.72;;;6.80;99.90;;;;;;5131125;28;20020;-79
2023/12/29 02:25:06;;;;;;;19.02;3.20;;;6.80;99.90;;;;;;5113912;27;20447;-79
2023/12/29 02:28:02;;;;;;;16.52;3.00;;;6.80;99.90;;;;;;5134326;27;20163;-79
2023/12/29 02:30:35;;;;;;;17.23;3.50;;;6.80;99.90;;;;;;5134416;27;20462;-79
2023/12/29 02:33:05;;;;;;;;;;;6.80;99.90;;;;;;5134646;27;20444;-79
2023/12/29 02:35:39;;;;;;;18.70;3.05;;;6.80;99.90;;;;;;5134793;27;19906;-79
2023/12/29 02:38:05;;;;;;;19.02;3.22;;;6.80;99.90;;;;;;5115623;27;20364;-78
2023/12/29 02:40:31;;;;;;;21.60;3.85;;;6.80;99.90;;;;;;5134455;27;20403;-79
2023/12/29 02:42:56;;;;;;;17.85;3.15;;;6.80;99.90;;;;;;5133709;27;20019;-78
2023/12/29 02:45:22;;;;;;;17.98;2.95;;;6.80;99.90;;;;;;5134419;27;20106;-78
2023/12/29 02:47:48;;;;;;;15.93;3.30;;;6.80;99.90;;;;;;5134160;27;20035;-78
2023/12/29 02:50:14;;;;;;;14.60;2.55;;;6.70;99.90;;;;;;5134181;27;20287;-78
2023/12/29 02:52:40;;;;;;;17.92;3.15;;;6.80;99.90;;;;;;5134363;27;20023;-78
2023/12/29 02:55:06;;;;;;;14.02;3.70;;;6.80;99.90;;;;;;5133065;27;20496;-79
2023/12/29 02:57:31;;;;;;;22.17;3.42;;;6.70;99.90;;;;;;5134151;27;20428;-79
2023/12/29 02:59:57;;;;;;;23.42;3.72;;;6.70;99.90;;;;;;5133771;27;20020;-79
2023/12/29 03:02:24;;;;;;;20.52;3.00;;;6.70;99.90;;;;;;5133802;27;20106;-79
2023/12/29 03:04:49;;;;;;;20.77;3.90;;;6.70;99.90;;;;;;5134095;27;20030;-78
2023/12/29 03:07:15;;;;;;;19.17;3.42;;;6.70;99.90;;;;;;5133280;27;20589;-79
2023/12/29 03:09:41;;;;;;;19.88;3.13;;;6.70;99.90;;;;;;5133818;27;20110;-78
2023/12/29 03:12:07;;;;;;;19.58;3.22;;;6.70;99.90;;;;;;5114302;27;20022;-79
2023/12/29 03:14:32;;;;;;;21.08;3.83;;;6.70;99.90;;;;;;5133796;27;20034;-78
2023/12/29 03:16:58;;;;;;;16.10;2.88;;;6.70;99.90;;;;;;5133288;27;20019;-79
2023/12/29 03:19:25;;;;;;;24.15;4.28;;;6.70;99.90;;;;;;5133411;27;20160;-79
2023/12/29 03:21:52;;;;;;;21.55;4.38;;;6.60;99.90;;;;;;5115493;27;20058;-79
2023/12/29 03:24:18;;;;;;;18.05;3.17;;;6.60;99.90;;;;;;5132837;27;20015;-79
2023/12/29 03:26:43;;;;;;;21.52;3.50;;;6.60;99.90;;;;;;5133534;27;20395;-78
2023/12/29 03:29:11;;;;;;;24.65;4.25;;;6.60;99.90;;;;;;5132921;27;20026;-78
2023/12/29 03:31:37;;;;;;;19.75;3.42;;;6.60;99.90;;;;;;5134040;27;20131;-78
2023/12/29 03:34:02;;;;;;;24.10;4.30;;;6.50;99.90;;;;;;5114025;27;20023;-79
2023/12/29 03:36:28;;;;;;;15.48;3.97;;;6.50;99.90;;;;;;5133094;27;20030;-78
2023/12/29 03:38:54;;;;;;;22.67;4.15;;;6.60;99.90;;;;;;5133025;27;20037;-79
2023/12/29 03:41:19;;;;;;;18.45;3.63;;;6.50;99.90;;;;;;5132695;27;20448;-79
2023/12/29 03:43:45;;;;;;;19.92;2.85;;;6.50;99.90;;;;;;5133284;27;20058;-78
2023/12/29 03:46:19;;;;;;;20.70;3.20;;;6.50;99.90;;;;;;5132130;27;20134;-78
2023/12/29 03:48:45;;;;;;;23.42;3.38;;;6.50;99.90;;;;;;5132854;27;20050;-78
2023/12/29 03:51:10;;;;;;;24.58;4.50;;;6.50;99.90;;;;;;5113895;27;20396;-79
2023/12/29 03:53:36;;;;;;;17.13;2.85;;;6.40;99.90;;;;;;5132694;27;20114;-78
2023/12/29 03:56:09;;;;;;;19.05;3.70;;;6.40;99.90;;;;;;5132328;27;20206;-79
2023/12/29 03:58:35;;;;;;;;;;;6.40;99.90;;;;;;5133063;27;20027;-79
2023/12/29 04:01:01;;;;;;;23.85;3.88;;;6.40;99.90;;;;;;5132317;27;19933;-78
2023/12/29 04:03:27;;;;;;;18.05;4.05;;;6.40;99.90;;;;;;5132751;27;20465;-78
2023/12/29 04:05:52;;;;;;;18.38;3.15;;;6.30;99.90;;;;;;5132738;27;20094;-78
2023/12/29 04:08:18;;;;;;;27.10;3.92;;;6.30;99.90;;;;;;5132093;27;20027;-78
2023/12/29 04:10:44;;;;;;;20.90;3.72;;;6.30;99.90;;;;;;5132505;27;20061;-78
2023/12/29 04:13:09;;;;;;;18.35;3.70;;;6.30;99.90;;;;;;5132035;27;20088;-79
2023/12/29 04:15:35;;;;;;;25.02;3.92;;;6.30;99.90;;;;;;5132582;27;20019;-78
2023/12/29 04:18:01;;;;;;;19.70;3.25;;;6.30;99.90;;;;;;5113540;27;20029;-79
2023/12/29 04:20:27;;;;;;;21.50;3.67;;;6.30;99.90;;;;;;5132667;27;20340;-78
2023/12/29 04:22:52;;;;;;;27.60;4.28;;;6.30;99.90;;;;;;5132710;27;20019;-78
2023/12/29 04:25:18;;;;;;;21.48;3.47;;;6.30;99.90;;;;;;5132322;27;20019;-79
2023/12/29 04:27:44;;;;;;;25.55;3.85;;;6.40;99.90;;;;;;5133212;27;20021;-78
2023/12/29 04:30:10;;;;;;;22.02;3.10;;;6.40;99.90;;;;;;5132464;27;20087;-79
2023/12/29 04:32:36;;;;;;;21.85;3.75;;;6.40;99.90;;;;;;5132497;27;20030;-79
2023/12/29 04:35:02;;;;;;;18.48;3.10;;;6.40;99.90;;;;;;5132247;27;20034;-79
2023/12/29 04:37:27;;;;;;;17.52;3.80;;;6.50;99.90;;;;;;5113652;27;20044;-79
2023/12/29 04:39:53;;;;;;;28.13;4.40;;;6.40;99.90;;;;;;5113682;27;20062;-79
2023/12/29 04:42:19;;;;;;;13.43;3.20;;;6.50;99.90;;;;;;5131615;27;20019;-78
2023/12/29 04:44:45;;;;;;;16.63;2.63;;;6.60;99.90;;;;;;5132024;27;20429;-78
2023/12/29 04:47:10;;;;;;;13.18;3.40;;;6.60;99.90;;;;;;5131269;27;20026;-78
2023/12/29 04:49:36;;;;;;;22.10;3.55;;;6.60;99.90;;;;;;5131473;27;20027;-78
2023/12/29 04:52:02;;;;;;;19.33;3.30;;;6.70;99.90;;;;;;5131834;27;20087;-78
2023/12/29 04:54:28;;;;;;;24.55;3.75;;;6.60;99.90;;;;;;5131485;27;20047;-79
2023/12/29 04:56:53;;;;;;;19.98;3.53;;;6.60;99.90;;;;;;5132226;27;20023;-79
2023/12/29 04:59:19;;;;;;;20.27;3.67;;;6.60;99.90;;;;;;5131370;27;20095;-79
2023/12/29 05:01:45;;;;;;;18.83;3.60;;;6.50;99.90;;;;;;5132039;27;20071;-78
2023/12/29 05:04:11;;;;;;;17.17;3.38;;;6.50;99.90;;;;;;5131232;27;20027;-78
2023/12/29 05:06:36;;;;;;;19.88;3.60;;;6.40;99.90;;;;;;5131903;27;20103;-78
2023/12/29 05:09:02;;;;;;;18.42;3.67;;;6.40;99.90;;;;;;5131689;27;20031;-78
2023/12/29 05:11:28;;;;;;;15.90;2.80;;;6.30;99.90;;;;;;5131965;28;20030;-78
2023/12/29 05:13:54;;;;;;;23.02;3.90;;;6.30;99.90;;;;;;5131665;28;20027;-78
2023/12/29 05:16:20;;;;;;;20.98;4.10;;;6.20;99.90;;;;;;5131366;28;20400;-78
2023/12/29 05:18:45;;;;;;;23.48;3.63;;;6.10;99.90;;;;;;5113342;28;20042;-79
2023/12/29 05:21:18;;;;;;;18.00;3.53;;;6.10;99.90;;;;;;5131305;28;20343;-78
2023/12/29 05:23:45;;;;;;;24.38;4.28;;;6.20;99.90;;;;;;5131708;28;20342;-79
2023/12/29 05:26:11;;;;;;;22.08;3.38;;;6.10;99.90;;;;;;5130733;28;20019;-78
2023/12/29 05:28:37;;;;;;;24.50;3.42;;;6.10;99.90;;;;;;5131803;28;20026;-78
2023/12/29 05:31:04;;;;;;;22.30;4.05;;;6.10;99.90;;;;;;5131937;28;20329;-78
2023/12/29 05:33:30;;;;;;;24.17;3.75;;;6.10;99.90;;;;;;5131559;28;20058;-78
2023/12/29 05:35:56;;;;;;;23.67;3.72;;;6.10;99.90;;;;;;5131336;28;20019;-78
2023/12/29 05:38:22;;;;;;;15.30;3.17;;;6.10;99.90;;;;;;5131170;28;20115;-78
2023/12/29 05:40:47;;;;;;;18.92;3.63;;;6.10;99.90;;;;;;5131421;28;20471;-78
2023/12/29 05:43:14;;;;;;;22.15;4.25;;;6.10;99.90;;;;;;5130537;28;20068;-78
2023/12/29 05:45:40;;;;;;;22.75;3.63;;;6.10;99.90;;;;;;5131595;28;20425;-78
2023/12/29 05:48:06;;;;;;;17.85;3.15;;;6.10;99.90;;;;;;5130907;28;20023;-78
2023/12/29 05:50:32;;;;;;;23.08;3.08;;;6.20;99.90;;;;;;5131016;28;20019;-78
2023/12/29 05:52:57;;;;;;;16.17;3.83;;;6.20;99.90;;;;;;5112483;28;20364;-78
2023/12/29 05:55:23;;;;;;;22.70;3.08;;;6.20;99.90;;;;;;5130591;28;20024;-78
2023/12/29 05:57:49;;;;;;;23.40;3.75;;;6.20;99.90;;;;;;5131444;27;20027;-78
2023/12/29 06:00:15;;;;;;;23.60;3.60;;;6.20;99.90;;;;;;5134120;27;20079;-78
2023/12/29 06:02:42;;;;;;;20.13;3.42;;;6.20;99.90;;;;;;5135018;27;20447;-78
2023/12/29 06:05:10;;;;;;;15.30;3.15;;;6.20;99.90;;;;;;5134628;27;20180;-78
2023/12/29 06:07:35;;;;;;;21.23;3.13;;;6.10;99.90;;;;;;5134742;27;20023;-78
2023/12/29 06:10:01;;;;;;;15.80;3.10;;;6.10;99.90;;;;;;5134782;27;20420;-78
2023/12/29 06:12:27;;;;;;;16.98;2.83;;;6.10;99.90;;;;;;5134331;27;20034;-78
2023/12/29 06:14:53;;;;;;;21.92;3.42;;;6.10;99.90;;;;;;5134675;27;20019;-79
2023/12/29 06:17:18;;;;;;;16.95;3.08;;;6.10;99.90;;;;;;5134168;27;20067;-78
2023/12/29 06:19:44;;;;;;;22.13;3.13;;;6.00;99.90;;;;;;5134160;27;20463;-78
2023/12/29 06:22:11;;;;;;;23.80;3.55;;;6.00;99.90;;;;;;5133449;27;20045;-79
2023/12/29 06:24:46;;;;;;;17.60;3.80;;;6.00;99.90;;;;;;5134532;27;20046;-78
2023/12/29 06:27:12;;;;;;;18.13;3.30;;;6.00;99.90;;;;;;5133783;27;20015;-78
2023/12/29 06:29:38;;;;;;;18.70;2.97;;;6.00;99.90;;;;;;5134338;27;20126;-78
2023/12/29 06:32:04;;;;;;;18.15;3.45;;;6.00;99.90;;;;;;5134713;27;20424;-78
2023/12/29 06:34:30;;;;;;;13.88;2.65;;;5.90;99.90;;;;;;5134000;27;20063;-78
2023/12/29 06:36:55;;;;;;;18.20;3.10;;;6.00;99.90;;;;;;5134788;27;20037;-78
2023/12/29 06:39:22;;;;;;;17.83;3.65;;;5.90;99.90;;;;;;5134132;27;20023;-78
2023/12/29 06:41:48;;;;;;;23.48;3.72;;;5.90;99.90;;;;;;5134536;27;20027;-78
2023/12/29 06:44:14;;;;;;;23.27;4.10;;;5.90;99.90;;;;;;5134031;27;20499;-78
2023/12/29 06:46:39;;;;;;;18.02;3.47;;;5.90;99.90;;;;;;5134772;27;20405;-78
2023/12/29 06:49:08;;;;;;;18.70;2.63;;;5.90;99.90;;;;;;5134422;27;20029;-78
2023/12/29 06:51:35;;;;;;;14.15;2.83;;;5.90;99.90;;;;;;5133823;27;20027;-78
2023/12/29 06:54:01;;;;;;;27.63;3.72;;;5.90;99.90;;;;;;5134131;27;20479;-78
2023/12/29 06:56:27;;;;;;;21.60;3.47;;;5.90;99.90;;;;;;5133600;27;20051;-78
2023/12/29 06:58:53;;;;;;;17.25;3.13;;;5.90;99.90;;;;;;5134159;27;20470;-78
2023/12/29 07:01:19;;;;;;;18.92;3.08;;;5.90;99.90;;;;;;5133393;27;20051;-78
2023/12/29 07:03:45;;;;;;;21.63;3.15;;;5.90;99.90;;;;;;5134088;27;20075;-78
2023/12/29 07:06:11;;;;;;;9.23;2.67;;;5.90;99.90;;;;;;5133647;27;20292;-79
2023/12/29 07:08:37;;;;;;;25.90;3.55;;;6.00;99.90;;;;;;5133583;27;20027;-78
2023/12/29 07:11:03;;;;;;;15.73;2.58;;;5.90;99.90;;;;;;5133060;27;20027;-78
2023/12/29 07:13:29;;;;;;;14.68;2.78;;;5.90;99.90;;;;;;5133263;27;20027;-78
2023/12/29 07:15:54;;;;;;;18.10;2.35;;;5.90;99.90;;;;;;5115127;27;20088;-78
2023/12/29 07:18:20;;;;;;;14.68;2.70;;;5.90;99.90;;;;;;5133147;27;20054;-78
2023/12/29 07:20:46;;;;;;;17.55;2.97;;;5.90;99.90;;;;;;5133646;27;20115;-78
2023/12/29 07:23:11;;;;;;;18.92;3.50;;;6.00;99.90;;;;;;5133502;27;20389;-79
2023/12/29 07:25:37;;;;;;;16.45;2.72;;;6.00;99.90;;;;;;5132765;27;20451;-78
2023/12/29 07:28:03;;;;;;;16.52;2.03;;;6.00;99.90;;;;;;5133473;27;20026;-78
2023/12/29 07:30:29;;;;;;;18.92;2.72;;;6.00;99.90;;;;;;5133743;27;20019;-79
2023/12/29 07:32:54;;;;;;;12.80;2.63;;;5.90;99.90;;;;;;5122157;27;20031;-79
2023/12/29 07:35:20;;;;;;;9.63;1.70;;;5.90;99.90;;;;;;5112816;28;20023;-77
2023/12/29 07:37:46;;;;;;;12.95;2.90;;;5.80;99.90;;;;;;5113383;28;20019;-80
2023/12/29 07:40:13;;;;;;;13.10;2.28;;;5.80;99.90;;;;;;5112512;28;20024;-81
2023/12/29 07:42:46;;;;;;;15.88;2.25;;;5.90;99.90;;;;;;5112890;28;20038;-80
2023/12/29 07:45:12;;;;;;;14.02;2.63;;;5.80;99.90;;;;;;5112471;28;20067;-82
2023/12/29 07:47:38;;;;;;;14.65;2.47;;;5.80;99.90;;;;;;5112260;28;20054;-79
2023/12/29 07:50:05;;;;;;;15.13;3.03;;;5.80;99.90;;;;;;5112882;28;20066;-80
2023/12/29 07:52:31;;;;;;;11.95;2.65;;;5.80;99.90;;;;;;5111674;28;20016;-79
2023/12/29 07:54:56;;;;;;;15.20;2.65;;;5.80;99.90;;;;;;5112252;28;20479;-79
2023/12/29 07:57:22;;;;;;;17.58;3.33;;;5.80;99.90;;;;;;5111535;28;20043;-79
2023/12/29 07:59:48;;;;;;;14.98;2.00;;;5.80;99.90;;;;;;5112254;28;20108;-79
2023/12/29 08:02:14;;;;;;;13.80;2.80;;;5.80;99.90;;;;;;5111818;28;20176;-81
2023/12/29 08:04:39;;;;;;;12.25;2.92;;;5.80;99.90;;;;;;5113034;27;20372;-80
2023/12/29 08:07:05;;;;;;;22.08;2.78;;;5.90;99.90;;;;;;5121630;27;20110;-79
2023/12/29 08:09:31;;;;;;;18.98;3.00;;;5.80;99.90;;;;;;5122734;27;20076;-79
2023/12/29 08:11:56;;;;;;;14.70;2.85;;;5.80;99.90;;;;;;5113947;27;20023;-80
2023/12/29 08:14:22;;;;;;;19.05;2.80;;;5.80;99.90;;;;;;5132069;27;20019;-79
2023/12/29 08:16:48;;;;;;;14.93;2.50;;;5.80;99.90;;;;;;5132306;27;20027;-80
2023/12/29 08:19:15;;;;;;;18.42;3.35;;;5.80;99.90;;;;;;5132076;27;20072;-80
2023/12/29 08:21:41;;;;;;;13.23;2.80;;;5.80;99.90;;;;;;5131050;27;20023;-80
2023/12/29 08:24:07;;;;;;;13.65;2.47;;;5.80;99.90;;;;;;5132148;27;20460;-80
2023/12/29 08:26:32;;;;;;;16.70;2.80;;;5.80;99.90;;;;;;5131596;27;20019;-80
2023/12/29 08:28:58;;;;;;;15.90;2.45;;;5.80;99.90;;;;;;5132407;27;20110;-78
2023/12/29 08:31:26;;;;;;;19.30;3.90;;;5.90;99.90;;;;;;5131744;27;20030;-80
2023/12/29 08:33:52;;;;;;;15.77;3.35;;;5.90;99.90;;;;;;5132045;27;20058;-80
2023/12/29 08:36:20;;;;;;;13.70;2.80;;;5.80;99.90;;;;;;5131760;27;20391;-81
2023/12/29 08:38:46;;;;;;;15.80;2.55;;;5.80;99.90;;;;;;5131470;27;20361;-80
2023/12/29 08:41:14;;;;;;;12.55;3.40;;;5.80;99.90;;;;;;5113603;27;20118;-80
2023/12/29 08:43:40;;;;;;;13.20;3.33;;;5.80;99.90;;;;;;5131295;27;20087;-80
2023/12/29 08:46:05;;;;;;;18.23;3.00;;;5.70;99.90;;;;;;5131871;27;20101;-80
2023/12/29 08:48:31;;;;;;;14.70;3.35;;;5.80;99.90;;;;;;5112965;27;20019;-80
2023/12/29 08:50:57;;;;;;;12.38;2.60;;;5.80;99.90;;;;;;5113153;27;20072;-80
2023/12/29 08:53:23;;;;;;;14.85;2.58;;;5.90;99.90;;;;;;5130954;27;20051;-80
2023/12/29 08:55:48;;;;;;;17.75;3.13;;;5.90;99.90;;;;;;5132382;27;20435;-80
2023/12/29 08:58:14;;;;;;;19.20;2.55;;;5.80;99.90;;;;;;5132265;27;20050;-80
2023/12/29 09:00:40;;;;;;;17.52;2.88;;;5.90;99.90;;;;;;5131571;27;20359;-80
2023/12/29 09:03:06;;;;;;;21.63;4.30;;;5.90;99.90;;;;;;5131482;27;20054;-80
2023/12/29 09:05:31;;;;;;;15.63;2.58;;;5.90;99.90;;;;;;5131109;27;20031;-79
2023/12/29 09:07:57;;;;;;;18.27;2.70;;;5.90;99.90;;;;;;5131601;27;20042;-79
2023/12/29 09:10:23;;;;;;;16.17;2.70;;;6.00;99.90;;;;;;5130692;27;20029;-80
2023/12/29 09:12:49;;;;;;;19.20;3.42;;;6.00;99.90;;;;;;5131622;28;20023;-80
2023/12/29 09:15:15;;;;;;;21.33;3.67;;;6.00;99.90;;;;;;5112745;28;20020;-80
2023/12/29 09:17:41;;;;;;;18.75;3.30;;;6.00;99.90;;;;;;5130893;28;20079;-80
2023/12/29 09:20:08;;;;;;;15.48;2.63;;;6.10;99.90;;;;;;5112894;28;20031;-80
2023/12/29 09:22:34;;;;;;;15.85;2.80;;;6.10;99.90;;;;;;5131191;28;20046;-80
2023/12/29 09:25:00;;;;;;;9.40;2.13;;;6.20;99.90;;;;;;5112742;28;20026;-81
2023/12/29 09:27:25;;;;;;;8.27;1.73;;;6.20;99.90;;;;;;5130522;28;20145;-80
2023/12/29 09:29:51;;;;;;;9.73;1.95;;;6.20;99.90;;;;;;5131428;28;20455;-80
2023/12/29 09:32:17;;;;;;;11.63;2.22;;;6.30;99.90;;;;;;5145649;27;20133;-80
2023/12/29 09:34:42;;;;;;;11.02;2.20;;;6.20;99.90;;;;;;5137093;27;20121;-81
2023/12/29 09:37:09;;;;;;;16.70;2.78;;;6.20;99.90;;;;;;5156316;27;20015;-81
2023/12/29 09:39:34;;;;;;;13.27;1.98;;;6.30;99.90;;;;;;5149819;27;20454;-80
2023/12/29 09:42:03;;;;;;;12.93;2.50;;;6.30;99.90;;;;;;5125835;27;20023;-81
2023/12/29 09:44:30;;;;;;;14.20;2.28;;;6.30;99.90;;;;;;5123990;27;20012;-80
2023/12/29 09:47:01;;;;;;;12.65;2.50;;;6.40;99.90;;;;;;5102657;28;20015;-81
2023/12/29 09:49:35;;;;;;;13.80;3.00;;;6.40;99.90;;;;;;5095781;28;20024;-82
2023/12/29 09:52:03;;;;;;;13.43;2.25;;;6.50;99.90;;;;;;5114925;28;20047;-80
2023/12/29 09:54:30;;;;;;;15.30;2.60;;;6.50;99.90;;;;;;5113892;28;20055;-81
2023/12/29 09:56:57;;;;;;;16.20;2.35;;;6.50;99.90;;;;;;5114948;28;20401;-80
2023/12/29 09:59:25;;;;;;;12.27;2.50;;;6.50;99.90;;;;;;5122329;27;20477;-80
2023/12/29 10:01:52;;;;;;;12.23;2.35;;;6.60;99.90;;;;;;5135082;27;20031;-81
2023/12/29 10:04:18;;;;;;;17.27;2.78;;;6.60;99.90;;;;;;5116238;27;20428;-81
2023/12/29 10:06:46;;;;;;;15.82;2.28;;;6.70;99.90;;;;;;5134586;27;20102;-80
2023/12/29 10:09:14;;;;;;;12.63;2.28;;;6.60;99.90;;;;;;5135010;27;20046;-80
2023/12/29 10:11:42;;;;;;;8.55;2.20;;;6.70;99.90;;;;;;5134255;27;20355;-80
2023/12/29 10:14:30;;;;;;;11.15;2.63;;;6.70;99.90;;;;;;5109395;28;20360;-81
2023/12/29 10:17:28;;;;;;;11.52;2.40;;;6.70;99.90;;;;;;5122449;27;20019;-83
2023/12/29 10:20:04;;;;;;;16.70;2.67;;;6.70;99.90;;;;;;5109167;28;20069;-81
2023/12/29 10:23:08;;;;;;;11.98;2.28;;;6.70;99.90;;;;;;5095357;28;20032;-84
2023/12/29 10:25:34;;;;;;;;;;;6.70;99.90;;;;;;5123143;27;20107;-83
2023/12/29 10:27:59;;;;;;;12.88;2.00;;;6.70;99.90;;;;;;5124625;27;20324;-84
2023/12/29 10:30:26;;;;;;;12.98;2.10;;;6.70;99.90;;;;;;5116029;27;20031;-84
2023/12/29 10:32:52;;;;;;;9.27;1.77;;;6.70;99.90;;;;;;5134036;27;20023;-83
2023/12/29 10:35:19;;;;;;;4.78;1.60;;;6.70;99.90;;;;;;5134809;27;20027;-82
2023/12/29 10:37:45;;;;;;;7.90;1.17;;;6.70;99.90;;;;;;5115557;27;20067;-83
2023/12/29 10:40:20;;;;;;;5.30;1.23;;;6.70;99.90;;;;;;5134364;27;20066;-83
2023/12/29 10:42:57;;;;;;;4.90;1.00;;;6.70;99.90;;;;;;5115661;27;20499;-83
2023/12/29 10:45:26;;;;;;;2.10;0.82;;;6.70;99.90;;;;;;5133450;27;20444;-82
2023/12/29 10:47:51;;;;;;;3.33;0.70;;;6.70;99.90;;;;;;5134172;27;20095;-83
2023/12/29 10:50:17;;;;;;;4.55;1.00;;;6.70;99.90;;;;;;5115872;27;20362;-83
2023/12/29 10:52:43;;;;;;;2.65;0.77;;;6.70;99.90;;;;;;5134387;27;20023;-83
2023/12/29 10:55:10;;;;;;;3.38;0.52;;;6.70;99.90;;;;;;5133541;27;20039;-83
2023/12/29 10:57:37;;;;;;;2.08;0.60;;;6.70;99.90;;;;;;5134059;27;20194;-83
2023/12/29 11:00:06;;;;;;;0.93;0.60;;;6.80;99.90;;;;;;5134234;27;20023;-82
2023/12/29 11:02:33;;;;;;;2.47;0.70;;;6.80;99.90;;;;;;5134176;27;20134;-82
2023/12/29 11:05:08;;;;;;;1.65;0.50;;;6.80;99.90;;;;;;5116342;27;20019;-83
2023/12/29 11:07:41;;;;;;;1.40;0.50;;;6.80;99.90;;;;;;5133825;27;20079;-83
2023/12/29 11:10:10;;;;;;;1.42;0.47;;;6.70;99.90;;;;;;5134051;27;20030;-83
2023/12/29 11:12:37;;;;;;;0.98;0.45;;;6.70;99.90;;;;;;5133994;27;20455;-83
2023/12/29 11:15:05;;;;;;;3.00;0.50;;;6.70;99.90;;;;;;5134074;27;20050;-83
2023/12/29 11:17:33;;;;;;;0.93;0.60;;;6.70;99.90;;;;;;5133418;27;20030;-83
2023/12/29 11:20:03;;;;;;;1.10;0.50;;;6.60;99.90;;;;;;5133527;27;20041;-82
2023/12/29 11:22:30;;;;;;;0.75;0.40;;;6.60;99.90;;;;;;5132921;27;20110;-84
2023/12/29 11:24:59;;;;;;;3.13;0.60;;;6.60;99.90;;;;;;5134307;27;20041;-83
2023/12/29 11:27:30;;;;;;;2.38;0.82;;;6.60;99.90;;;;;;5133931;27;20452;-83
2023/12/29 11:30:00;;;;;;;1.30;0.73;;;6.60;99.90;;;;;;5133652;27;20031;-83
2023/12/29 11:33:04;;;;;;;0.75;0.50;;;6.60;99.90;;;;;;5134061;27;20019;-83
2023/12/29 11:35:46;;;;;;;0.98;0.40;;;6.50;99.90;;;;;;5109065;27;20039;-84
2023/12/29 11:38:49;;;;;;;1.73;0.30;;;6.50;99.90;;;;;;5133956;27;20019;-84
2023/12/29 11:41:20;;;;;;;;;;;6.50;99.90;;;;;;5134036;27;20109;-85
2023/12/29 11:43:59;;;;;;;2.60;0.80;;;6.50;99.90;;;;;;5133007;27;19910;-84
2023/12/29 11:46:43;;;;;;;3.70;0.60;;;6.50;99.90;;;;;;5133530;27;20019;-83
2023/12/29 11:49:10;;;;;;;3.40;0.50;;;6.40;99.90;;;;;;5133712;27;20033;-84
2023/12/29 11:51:40;;;;;;;1.00;0.40;;;6.40;99.90;;;;;;5132564;27;20041;-84
2023/12/29 11:54:09;;;;;;;1.92;0.55;;;6.40;99.90;;;;;;5133498;27;20057;-84
2023/12/29 11:56:41;;;;;;;0.73;0.43;;;6.40;99.90;;;;;;5113790;27;20372;-84
2023/12/29 11:59:20;;;;;;;0.93;0.47;;;6.40;99.90;;;;;;5114787;27;20031;-84
2023/12/29 12:01:49;;;;;;;2.70;0.75;;;6.40;99.90;;;;;;5114206;27;20035;-83
2023/12/29 12:04:42;;;;;;;1.63;0.75;;;6.50;99.90;;;;;;5133496;27;20019;-83
2023/12/29 12:07:23;;;;;;;3.40;0.95;;;6.50;99.90;;;;;;5112829;27;20027;-84
2023/12/29 12:09:50;;;;;;;1.98;0.70;;;6.50;99.90;;;;;;5132584;27;20512;-84
2023/12/29 12:12:42;;;;;;;1.40;0.52;;;6.50;99.90;;;;;;5133145;27;20060;-84
2023/12/29 12:15:31;;;;;;;4.65;0.82;;;6.50;99.90;;;;;;5133744;27;20163;-82
2023/12/29 12:17:59;;;;;;;2.20;0.60;;;6.50;99.90;;;;;;5125267;27;20083;-84
2023/12/29 12:20:25;;;;;;;2.67;0.80;;;6.40;99.90;;;;;;5114843;27;20027;-82
2023/12/29 12:23:11;;;;;;;1.90;1.00;;;6.50;99.90;;;;;;5133184;27;20084;-82
2023/12/29 12:25:39;;;;;;;4.38;0.85;;;6.40;99.90;;;;;;5114065;27;20191;-82
2023/12/29 12:28:10;;;;;;;1.33;0.65;;;6.40;99.90;;;;;;5133665;27;20026;-82
2023/12/29 12:30:36;;;;;;;3.03;0.73;;;6.40;99.90;;;;;;5132818;27;20027;-81
2023/12/29 12:33:03;;;;;;;0.95;0.77;;;6.40;99.90;;;;;;5133484;27;20428;-81
2023/12/29 12:35:30;;;;;;;1.25;0.70;;;6.40;99.90;;;;;;5133285;27;20076;-81
2023/12/29 12:38:10;;;;;;;2.15;0.93;;;6.30;99.90;;;;;;5132694;27;20023;-82
2023/12/29 12:40:37;;;;;;;2.88;0.70;;;6.20;99.90;;;;;;5132544;27;20072;-82
2023/12/29 12:43:04;;;;;;;2.15;0.90;;;6.20;99.90;;;;;;5133386;27;20122;-82
2023/12/29 12:45:34;;;;;;;2.63;0.77;;;6.20;99.90;;;;;;5133451;27;20016;-81
2023/12/29 12:48:13;;;;;;;1.85;0.70;;;6.10;99.90;;;;;;5133617;27;20011;-82
2023/12/29 12:50:43;;;;;;;1.05;0.60;;;6.10;99.90;;;;;;5132555;27;20023;-81
2023/12/29 12:53:10;;;;;;;2.38;0.63;;;6.10;99.90;;;;;;5132506;27;20039;-81